createdAt,value
2022-09-26T00:00:10.470Z,99531.92
2022-09-26T00:02:40.836Z,99530.16
2022-09-26T00:05:12.145Z,99529.19
2022-09-26T00:07:42.423Z,99531.23
2022-09-26T00:10:13.002Z,99523.08
2022-09-26T00:12:43.284Z,99520.67
2022-09-26T00:15:14.143Z,99517.29
2022-09-26T00:17:44.463Z,99510.08
2022-09-26T00:20:15.353Z,99510.59
2022-09-26T00:22:45.645Z,99510.22
2022-09-26T00:25:15.976Z,99507.98
2022-09-26T00:27:46.414Z,99508.53
2022-09-26T00:30:16.953Z,99506.09
2022-09-26T00:32:47.288Z,99511.48
2022-09-26T00:35:17.716Z,99507.44
2022-09-26T00:37:47.961Z,99507.74
2022-09-26T00:40:18.323Z,99504.40
2022-09-26T00:42:48.715Z,99502.02
2022-09-26T00:45:19.205Z,99502.70
2022-09-26T00:47:58.081Z,99496.69
2022-09-26T00:50:32.072Z,99494.77
2022-09-26T00:53:07.438Z,99492.53
2022-09-26T00:55:46.328Z,99486.93
2022-09-26T00:58:20.997Z,99486.81
2022-09-26T01:00:52.195Z,99488.61
2022-09-26T01:03:23.550Z,99490.39
2022-09-26T01:05:54.422Z,99483.21
2022-09-26T01:08:34.248Z,99485.38
2022-09-26T01:11:05.120Z,99485.80
2022-09-26T01:13:36.864Z,99484.28
2022-09-26T01:16:07.543Z,99481.52
2022-09-26T01:18:38.504Z,99480.47
2022-09-26T01:21:28.008Z,99483.13
2022-09-26T01:24:29.426Z,99481.95
2022-09-26T01:27:35.830Z,99473.59
2022-09-26T01:30:10.695Z,99464.63
2022-09-26T01:33:03.761Z,99463.27
2022-09-26T01:35:59.681Z,99457.23
2022-09-26T01:38:40.839Z,99449.95
2022-09-26T01:41:27.705Z,99449.83
2022-09-26T01:44:08.276Z,99443.53
2022-09-26T01:46:46.768Z,99447.56
2022-09-26T01:49:22.272Z,99444.80
2022-09-26T01:52:04.387Z,99448.14
2022-09-26T01:54:39.942Z,99447.83
2022-09-26T01:57:15.533Z,99445.05
2022-09-26T01:59:49.980Z,99448.23
2022-09-26T02:02:25.508Z,99444.45
2022-09-26T02:05:02.542Z,99440.11
2022-09-26T02:07:40.082Z,99442.00
2022-09-26T02:10:17.800Z,99445.36
2022-09-26T02:12:55.088Z,99443.42
2022-09-26T02:15:28.328Z,99442.52
2022-09-26T02:18:03.660Z,99441.48
2022-09-26T02:20:38.303Z,99438.32
2022-09-26T02:23:08.909Z,99434.81
2022-09-26T02:25:39.619Z,99432.59
2022-09-26T02:28:10.395Z,99426.94
2022-09-26T02:30:44.497Z,99426.98
2022-09-26T02:33:15.396Z,99429.41
2022-09-26T02:35:55.226Z,99427.61
2022-09-26T02:38:27.803Z,99427.92
2022-09-26T02:41:09.833Z,99432.98
2022-09-26T02:43:51.206Z,99430.90
2022-09-26T02:46:45.958Z,99429.30
2022-09-26T02:49:38.490Z,99420.10
2022-09-26T02:52:25.932Z,99418.14
2022-09-26T02:55:05.041Z,99416.36
2022-09-26T02:57:46.103Z,99422.46
2022-09-26T03:00:21.514Z,99418.58
2022-09-26T03:02:58.768Z,99423.08
2022-09-26T03:05:31.159Z,99422.47
2022-09-26T03:08:05.889Z,99422.65
2022-09-26T03:10:38.374Z,99422.64
2022-09-26T03:13:12.312Z,99426.80
2022-09-26T03:15:46.467Z,99428.83
2022-09-26T03:18:20.894Z,99425.65
2022-09-26T03:20:54.146Z,99422.98
2022-09-26T03:23:26.880Z,99422.69
2022-09-26T03:26:11.397Z,99423.43
2022-09-26T03:28:42.411Z,99422.94
2022-09-26T03:31:13.133Z,99421.73
2022-09-26T03:33:43.535Z,99417.70
2022-09-26T03:36:14.231Z,99416.17
2022-09-26T03:38:44.648Z,99412.67
2022-09-26T03:41:15.469Z,99410.23
2022-09-26T03:43:45.746Z,99409.76
2022-09-26T03:46:16.303Z,99410.79
2022-09-26T03:48:49.295Z,99408.83
2022-09-26T03:51:21.095Z,99405.64
2022-09-26T03:53:51.920Z,99401.92
2022-09-26T03:56:23.515Z,99397.47
2022-09-26T03:58:54.152Z,99401.17
2022-09-26T04:01:25.343Z,99392.05
2022-09-26T04:03:57.618Z,99390.10
2022-09-26T04:06:27.989Z,99384.46
2022-09-26T04:08:58.732Z,99385.66
2022-09-26T04:11:29.180Z,99380.69
2022-09-26T04:13:59.479Z,99382.67
2022-09-26T04:16:30.528Z,99376.66
2022-09-26T04:19:00.935Z,99379.45
2022-09-26T04:21:31.369Z,99379.41
2022-09-26T04:24:02.486Z,99378.13
2022-09-26T04:26:32.767Z,99378.95
2022-09-26T04:29:03.102Z,99374.27
2022-09-26T04:31:36.659Z,99370.67
2022-09-26T04:34:07.648Z,99369.84
2022-09-26T04:36:37.971Z,99367.27
2022-09-26T04:39:08.430Z,99358.30
2022-09-26T04:41:39.453Z,99358.60
2022-09-26T04:44:11.277Z,99356.08
2022-09-26T04:46:43.939Z,99355.30
2022-09-26T04:49:14.452Z,99357.90
2022-09-26T04:51:44.911Z,99360.59
2022-09-26T04:54:16.176Z,99357.30
2022-09-26T04:56:46.749Z,99363.79
2022-09-26T04:59:19.054Z,99365.95
2022-09-26T05:01:49.388Z,99362.58
2022-09-26T05:04:22.815Z,99361.05
2022-09-26T05:06:57.646Z,99358.48
2022-09-26T05:09:29.941Z,99356.66
2022-09-26T05:12:03.523Z,99356.56
2022-09-26T05:14:35.492Z,99358.27
2022-09-26T05:17:06.092Z,99360.65
2022-09-26T05:19:36.428Z,99361.83
2022-09-26T05:22:06.772Z,99367.52
2022-09-26T05:24:54.571Z,99363.52
2022-09-26T05:27:25.013Z,99362.13
2022-09-26T05:29:55.927Z,99366.17
2022-09-26T05:32:28.771Z,99364.08
2022-09-26T05:34:59.080Z,99361.14
2022-09-26T05:37:29.361Z,99366.04
2022-09-26T05:40:17.302Z,99365.20
2022-09-26T05:42:47.611Z,99364.31
2022-09-26T05:45:18.374Z,99363.83
2022-09-26T05:47:48.740Z,99365.78
2022-09-26T05:50:22.401Z,99364.06
2022-09-26T05:52:52.798Z,99361.85
2022-09-26T05:55:24.093Z,99362.40
2022-09-26T05:57:55.693Z,99359.66
2022-09-26T06:00:26.501Z,99356.04
2022-09-26T06:03:02.899Z,99359.95
2022-09-26T06:05:34.206Z,99365.13
2022-09-26T06:08:04.632Z,99366.63
2022-09-26T06:10:37.367Z,99359.20
2022-09-26T06:13:08.772Z,99361.04
2022-09-26T06:15:39.970Z,99360.77
2022-09-26T06:18:10.274Z,99357.00
2022-09-26T06:20:40.630Z,99355.53
2022-09-26T06:23:10.880Z,99363.31
2022-09-26T06:25:41.196Z,99363.92
2022-09-26T06:28:11.457Z,99369.91
2022-09-26T06:30:41.756Z,99371.15
2022-09-26T06:33:12.066Z,99371.00
2022-09-26T06:35:42.463Z,99374.70
2022-09-26T06:38:12.801Z,99373.56
2022-09-26T06:40:43.136Z,99375.00
2022-09-26T06:43:14.020Z,99376.84
2022-09-26T06:45:46.039Z,99375.23
2022-09-26T06:48:20.992Z,99375.85
2022-09-26T06:50:57.136Z,99379.98
2022-09-26T06:53:27.927Z,99375.35
2022-09-26T06:55:59.152Z,99378.05
2022-09-26T06:58:29.444Z,99379.13
2022-09-26T07:01:01.353Z,99384.77
2022-09-26T07:03:31.909Z,99386.74
2022-09-26T07:06:03.424Z,99393.16
2022-09-26T07:09:00.395Z,99389.20
2022-09-26T07:14:16.788Z,99396.94
2022-09-26T07:16:50.800Z,99390.85
2022-09-26T07:19:21.119Z,99390.80
2022-09-26T07:21:51.390Z,99383.27
2022-09-26T07:24:21.950Z,99388.13
2022-09-26T07:26:52.358Z,99389.66
2022-09-26T07:29:22.864Z,99386.08
2022-09-26T07:31:53.966Z,99382.10
2022-09-26T07:34:25.204Z,99383.45
2022-09-26T07:36:57.975Z,99380.30
2022-09-26T07:39:28.715Z,99381.63
2022-09-26T07:42:00.708Z,99380.89
2022-09-26T07:45:17.058Z,99380.63
2022-09-26T07:47:39.039Z,99383.96
2022-09-26T07:50:14.640Z,99382.63
2022-09-26T07:52:46.354Z,99380.23
2022-09-26T07:55:19.275Z,99381.19
2022-09-26T07:57:50.159Z,99381.03
2022-09-26T08:00:22.906Z,99383.61
2022-09-26T08:02:53.410Z,99387.36
2022-09-26T08:05:25.017Z,99391.46
2022-09-26T08:07:57.455Z,99383.42
2022-09-26T08:10:27.902Z,99383.92
2022-09-26T08:13:01.596Z,99382.88
2022-09-26T08:15:31.927Z,99380.17
2022-09-26T08:18:02.189Z,99381.08
2022-09-26T08:20:32.557Z,99375.54
2022-09-26T08:23:02.872Z,99371.41
2022-09-26T08:25:33.162Z,99364.60
2022-09-26T08:28:07.456Z,99368.94
2022-09-26T08:30:37.851Z,99372.25
2022-09-26T08:33:08.782Z,99367.55
2022-09-26T08:35:39.754Z,99370.43
2022-09-26T08:38:11.235Z,99370.80
2022-09-26T08:40:53.010Z,99369.80
2022-09-26T08:43:36.386Z,99366.77
2022-09-26T08:46:43.038Z,99363.61
2022-09-26T08:49:41.785Z,99356.98
2022-09-26T08:52:30.956Z,99359.46
2022-09-26T08:55:08.730Z,99360.42
2022-09-26T08:57:43.502Z,99359.52
2022-09-26T09:00:22.681Z,99354.54
2022-09-26T09:03:04.265Z,99351.59
2022-09-26T09:05:39.063Z,99354.09
2022-09-26T09:08:15.465Z,99354.17
2022-09-26T09:10:55.193Z,99351.91
2022-09-26T09:13:45.725Z,99352.50
2022-09-26T09:16:40.494Z,99348.90
2022-09-26T09:19:23.549Z,99343.35
2022-09-26T09:22:06.482Z,99344.38
2022-09-26T09:24:54.720Z,99347.73
2022-09-26T09:27:53.825Z,99346.39
2022-09-26T09:30:30.094Z,99346.69
2022-09-26T09:33:04.194Z,99346.78
2022-09-26T09:35:42.555Z,99340.08
2022-09-26T09:38:18.202Z,99345.03
2022-09-26T09:40:59.215Z,99346.65
2022-09-26T09:43:35.799Z,99352.89
2022-09-26T09:46:14.190Z,99355.91
2022-09-26T09:48:49.474Z,99359.50
2022-09-26T09:51:35.542Z,99360.76
2022-09-26T09:54:25.790Z,99359.09
2022-09-26T09:57:13.725Z,99354.62
2022-09-26T10:00:10.451Z,99352.41
2022-09-26T10:02:47.803Z,99353.52
2022-09-26T10:05:33.661Z,99357.80
2022-09-26T10:08:09.870Z,99360.94
2022-09-26T10:10:46.124Z,99358.47
2022-09-26T10:13:17.974Z,99357.98
2022-09-26T10:15:59.128Z,99359.10
2022-09-26T10:18:31.357Z,99365.15
2022-09-26T10:21:09.001Z,99362.86
2022-09-26T10:23:43.105Z,99362.60
2022-09-26T10:26:14.836Z,99363.23
2022-09-26T10:28:52.694Z,99363.23
2022-09-26T10:31:29.361Z,99363.23
2022-09-26T10:34:03.551Z,99364.50
2022-09-26T10:36:36.427Z,99365.75
2022-09-26T10:39:38.002Z,99371.20
2022-09-26T10:42:20.178Z,99371.83
2022-09-26T10:44:51.173Z,99375.02
2022-09-26T10:47:25.911Z,99377.42
2022-09-26T10:50:03.111Z,99377.33
2022-09-26T10:52:40.064Z,99378.06
2022-09-26T10:55:15.138Z,99379.16
2022-09-26T10:57:50.936Z,99377.13
2022-09-26T11:00:36.755Z,99373.04
2022-09-26T11:03:08.906Z,99368.60
2022-09-26T11:06:00.305Z,99365.92
2022-09-26T11:08:32.924Z,99371.28
2022-09-26T11:11:06.284Z,99370.35
2022-09-26T11:13:48.291Z,99365.44
2022-09-26T11:16:20.220Z,99365.05
2022-09-26T11:18:58.897Z,99367.61
2022-09-26T11:21:37.762Z,99371.70
2022-09-26T11:24:16.448Z,99369.04
2022-09-26T11:26:55.713Z,99370.86
2022-09-26T11:29:38.164Z,99372.54
2022-09-26T11:32:10.606Z,99371.73
2022-09-26T11:34:41.689Z,99369.06
2022-09-26T11:37:30.859Z,99368.27
2022-09-26T11:40:18.082Z,99368.15
2022-09-26T11:43:00.562Z,99363.77
2022-09-26T11:45:47.195Z,99358.89
2022-09-26T11:48:36.167Z,99355.64
2022-09-26T11:51:15.730Z,99347.05
2022-09-26T11:54:04.163Z,99345.14
2022-09-26T11:56:58.850Z,99336.79
2022-09-26T11:59:47.701Z,99335.15
2022-09-26T12:02:42.514Z,99338.93
2022-09-26T12:05:27.435Z,99342.10
2022-09-26T12:08:16.147Z,99344.30
2022-09-26T12:10:57.689Z,99342.29
2022-09-26T12:13:41.547Z,99336.58
2022-09-26T12:16:22.217Z,99336.11
2022-09-26T12:19:03.231Z,99337.13
2022-09-26T12:22:07.703Z,99334.83
2022-09-26T12:24:47.708Z,99334.05
2022-09-26T12:27:26.599Z,99328.11
2022-09-26T12:30:07.523Z,99323.88
2022-09-26T12:32:52.031Z,99326.23
2022-09-26T12:35:36.238Z,99320.95
2022-09-26T12:38:39.514Z,99317.23
2022-09-26T12:41:40.240Z,99316.63
2022-09-26T12:44:23.240Z,99321.09
2022-09-26T12:47:12.682Z,99318.44
2022-09-26T12:50:06.085Z,99316.77
2022-09-26T12:53:06.617Z,99311.08
2022-09-26T12:55:43.912Z,99308.02
2022-09-26T12:58:33.329Z,99305.95
2022-09-26T13:01:12.237Z,99308.98
2022-09-26T13:03:57.838Z,99307.96
2022-09-26T13:07:08.039Z,99303.30
2022-09-26T13:10:11.725Z,99294.27
2022-09-26T13:13:02.559Z,99293.48
2022-09-26T13:15:43.007Z,99289.83
2022-09-26T13:18:23.017Z,99287.13
2022-09-26T13:20:59.060Z,99288.33
2022-09-26T13:23:35.406Z,99286.40
2022-09-26T13:26:14.299Z,99288.92
2022-09-26T13:29:15.763Z,99288.75
2022-09-26T13:31:47.828Z,99287.65
2022-09-26T13:34:23.964Z,99289.73
2022-09-26T13:36:56.141Z,99288.84
2022-09-26T13:39:32.758Z,99289.70
2022-09-26T13:42:07.612Z,99288.48
2022-09-26T13:44:56.440Z,99286.33
2022-09-26T13:47:39.705Z,99285.16
2022-09-26T13:50:23.383Z,99280.12
2022-09-26T13:53:07.626Z,99275.98
2022-09-26T13:55:37.937Z,99269.66
2022-09-26T13:58:22.197Z,99263.79
2022-09-26T14:00:56.174Z,99265.23
2022-09-26T14:03:43.790Z,99263.23
2022-09-26T14:06:31.986Z,99254.87
2022-09-26T14:09:27.839Z,99252.04
2022-09-26T14:12:20.278Z,99250.19
2022-09-26T14:15:08.406Z,99243.46
2022-09-26T14:18:17.809Z,99240.48
2022-09-26T14:21:05.038Z,99239.81
2022-09-26T14:23:42.819Z,99240.79
2022-09-26T14:26:15.493Z,99242.30
2022-09-26T14:28:53.557Z,99244.79
2022-09-26T14:31:40.145Z,99243.15
2022-09-26T14:34:30.592Z,99245.44
2022-09-26T14:37:05.325Z,99239.05
2022-09-26T14:39:45.648Z,99234.61
2022-09-26T14:42:24.128Z,99231.27
2022-09-26T14:44:59.040Z,99224.84
2022-09-26T14:47:32.218Z,99222.54
2022-09-26T14:50:07.656Z,99220.02
2022-09-26T14:52:39.637Z,99215.75
2022-09-26T14:55:16.621Z,99213.27
2022-09-26T14:57:49.481Z,99203.88
2022-09-26T15:00:47.692Z,99208.98
2022-09-26T15:03:20.588Z,99207.79
2022-09-26T15:05:51.970Z,99207.76
2022-09-26T15:08:27.331Z,99204.35
2022-09-26T15:11:00.843Z,99204.68
2022-09-26T15:13:37.519Z,99201.91
2022-09-26T15:16:22.262Z,99204.98
2022-09-26T15:18:56.907Z,99200.99
2022-09-26T15:21:33.854Z,99198.19
2022-09-26T15:24:24.044Z,99193.38
2022-09-26T15:26:56.347Z,99190.27
2022-09-26T15:29:27.667Z,99190.80
2022-09-26T15:31:57.954Z,99183.65
2022-09-26T15:34:34.683Z,99183.89
2022-09-26T15:37:17.113Z,99182.79
2022-09-26T15:39:47.489Z,99179.95
2022-09-26T15:42:55.188Z,99175.40
2022-09-26T15:45:33.472Z,99175.91
2022-09-26T15:48:25.054Z,99179.86
2022-09-26T15:50:57.748Z,99179.38
2022-09-26T15:53:31.548Z,99177.11
2022-09-26T15:56:06.393Z,99177.41
2022-09-26T15:58:43.681Z,99177.35
2022-09-26T16:01:25.994Z,99180.36
2022-09-26T16:04:00.973Z,99177.96
2022-09-26T16:06:34.714Z,99179.73
2022-09-26T16:09:19.440Z,99177.83
2022-09-26T16:11:52.660Z,99182.77
2022-09-26T16:14:31.468Z,99182.74
2022-09-26T16:17:12.158Z,99178.63
2022-09-26T16:19:48.459Z,99180.23
2022-09-26T16:22:44.803Z,99177.02
2022-09-26T16:25:36.619Z,99172.83
2022-09-26T16:28:22.850Z,99170.63
2022-09-26T16:31:15.324Z,99167.60
2022-09-26T16:33:53.438Z,99161.96
2022-09-26T16:36:25.322Z,99165.08
2022-09-26T16:38:58.695Z,99167.60
2022-09-26T16:41:59.918Z,99169.96
2022-09-26T16:44:34.835Z,99174.29
2022-09-26T16:47:09.246Z,99173.52
2022-09-26T16:49:48.499Z,99176.11
2022-09-26T16:52:34.434Z,99180.88
2022-09-26T16:55:07.065Z,99185.21
2022-09-26T16:57:40.356Z,99184.25
2022-09-26T17:00:36.720Z,99181.45
2022-09-26T17:03:22.224Z,99179.27
2022-09-26T17:05:54.910Z,99182.81
2022-09-26T17:08:26.551Z,99178.96
2022-09-26T17:10:59.619Z,99176.13
2022-09-26T17:13:33.179Z,99180.87
2022-09-26T17:16:04.078Z,99171.48
2022-09-26T17:18:35.154Z,99176.70
2022-09-26T17:21:05.731Z,99176.52
2022-09-26T17:23:40.929Z,99175.04
2022-09-26T17:26:18.270Z,99170.35
2022-09-26T17:28:49.259Z,99171.17
2022-09-26T17:31:20.988Z,99169.42
2022-09-26T17:33:54.447Z,99176.98
2022-09-26T17:36:30.683Z,99173.99
2022-09-26T17:39:02.733Z,99177.73
2022-09-26T17:41:34.598Z,99176.34
2022-09-26T17:44:05.040Z,99175.25
2022-09-26T17:46:37.560Z,99172.04
2022-09-26T17:49:13.203Z,99172.02
2022-09-26T17:51:43.899Z,99168.23
2022-09-26T17:54:20.468Z,99165.59
2022-09-26T17:56:51.265Z,99165.25
2022-09-26T17:59:25.580Z,99161.70
2022-09-26T18:01:58.960Z,99162.81
2022-09-26T18:04:30.749Z,99172.52
2022-09-26T18:07:05.387Z,99173.11
2022-09-26T18:09:39.497Z,99172.58
2022-09-26T18:12:16.249Z,99171.20
2022-09-26T18:14:47.370Z,99173.16
2022-09-26T18:17:19.249Z,99169.30
2022-09-26T18:19:50.806Z,99170.43
2022-09-26T18:22:27.648Z,99169.71
2022-09-26T18:25:04.376Z,99165.29
2022-09-26T18:27:39.739Z,99158.39
2022-09-26T18:30:14.990Z,99157.48
2022-09-26T18:32:50.813Z,99155.30
2022-09-26T18:35:25.147Z,99151.75
2022-09-26T18:37:56.770Z,99153.96
2022-09-26T18:40:29.661Z,99150.69
2022-09-26T18:43:02.053Z,99148.27
2022-09-26T18:45:36.028Z,99145.66
2022-09-26T18:48:09.012Z,99142.91
2022-09-26T18:50:41.038Z,99141.98
2022-09-26T18:53:16.739Z,99145.73
2022-09-26T18:56:13.345Z,99149.13
2022-09-26T18:58:44.111Z,99150.70
2022-09-26T19:01:21.431Z,99153.02
2022-09-26T19:03:53.004Z,99149.18
2022-09-26T19:06:25.842Z,99144.67
2022-09-26T19:09:01.474Z,99140.65
2022-09-26T19:11:34.780Z,99132.46
2022-09-26T19:14:15.335Z,99128.24
2022-09-26T19:16:47.549Z,99128.13
2022-09-26T19:19:18.411Z,99123.11
2022-09-26T19:21:52.021Z,99124.92
2022-09-26T19:24:30.551Z,99123.59
2022-09-26T19:27:06.475Z,99119.77
2022-09-26T19:29:41.865Z,99113.48
2022-09-26T19:32:21.420Z,99113.85
2022-09-26T19:34:56.728Z,99115.84
2022-09-26T19:37:27.182Z,99116.92
2022-09-26T19:39:58.044Z,99116.98
2022-09-26T19:42:28.603Z,99116.63
2022-09-26T19:44:59.376Z,99119.66
2022-09-26T19:47:33.523Z,99120.06
2022-09-26T19:50:04.133Z,99117.15
2022-09-26T19:52:34.733Z,99114.75
2022-09-26T19:55:06.906Z,99111.28
2022-09-26T19:57:37.315Z,99113.96
2022-09-26T20:00:10.460Z,99115.73
2022-09-26T20:02:41.372Z,99115.75
2022-09-26T20:05:20.063Z,99120.50
2022-09-26T20:07:50.551Z,99122.58
2022-09-26T20:10:25.238Z,99118.99
2022-09-26T20:12:56.320Z,99119.59
2022-09-26T20:15:26.854Z,99119.27
2022-09-26T20:17:58.419Z,99117.30
2022-09-26T20:20:29.119Z,99119.30
2022-09-26T20:22:59.548Z,99118.52
2022-09-26T20:25:32.153Z,99117.36
2022-09-26T20:28:03.513Z,99118.80
2022-09-26T20:30:51.633Z,99112.32
2022-09-26T20:33:23.928Z,99114.19
2022-09-26T20:36:02.368Z,99110.51
2022-09-26T20:38:37.900Z,99103.75
2022-09-26T20:41:13.993Z,99100.13
2022-09-26T20:43:48.611Z,99098.29
2022-09-26T20:46:20.934Z,99093.52
2022-09-26T20:48:52.497Z,99095.38
2022-09-26T20:51:29.000Z,99094.30
2022-09-26T20:54:01.126Z,99095.51
2022-09-26T20:56:31.730Z,99094.08
2022-09-26T20:59:02.057Z,99091.45
2022-09-26T21:01:32.487Z,99091.93
2022-09-26T21:04:05.375Z,99091.56
2022-09-26T21:06:37.221Z,99088.91
2022-09-26T21:09:11.853Z,99085.39
2022-09-26T21:11:42.630Z,99079.39
2022-09-26T21:14:13.317Z,99074.24
2022-09-26T21:16:46.658Z,99076.08
2022-09-26T21:19:22.370Z,99070.76
2022-09-26T21:21:53.607Z,99067.55
2022-09-26T21:24:30.858Z,99061.02
2022-09-26T21:27:01.503Z,99058.34
2022-09-26T21:29:32.042Z,99057.56
2022-09-26T21:32:04.628Z,99056.77
2022-09-26T21:34:36.378Z,99052.54
2022-09-26T21:37:11.099Z,99052.81
2022-09-26T21:39:41.446Z,99049.41
2022-09-26T21:42:11.738Z,99050.74
2022-09-26T21:44:45.041Z,99048.21
2022-09-26T21:47:15.611Z,99046.90
2022-09-26T21:49:46.613Z,99050.48
2022-09-26T21:52:22.568Z,99044.33
2022-09-26T21:54:53.860Z,99045.98
2022-09-26T21:57:28.142Z,99044.16
2022-09-26T22:00:00.163Z,99039.36
2022-09-26T22:02:30.543Z,99034.39
2022-09-26T22:05:00.888Z,99033.30
2022-09-26T22:07:31.268Z,99031.81
2022-09-26T22:10:01.622Z,99026.69
2022-09-26T22:12:31.938Z,99022.13
2022-09-26T22:15:02.277Z,99018.96
2022-09-26T22:17:32.568Z,99015.50
2022-09-26T22:20:03.191Z,99014.33
2022-09-26T22:22:33.491Z,99011.06
2022-09-26T22:25:04.487Z,99006.23
2022-09-26T22:27:36.257Z,99004.89
2022-09-26T22:30:07.934Z,99004.77
2022-09-26T22:32:38.246Z,98999.63
2022-09-26T22:35:09.474Z,99000.38
2022-09-26T22:37:40.318Z,98995.88
2022-09-26T22:40:11.689Z,98995.08
2022-09-26T22:42:42.004Z,98996.02
2022-09-26T22:45:13.543Z,98988.57
2022-09-26T22:47:43.977Z,98986.52
2022-09-26T22:50:14.259Z,98984.30
2022-09-26T22:52:44.989Z,98979.94
2022-09-26T22:55:15.426Z,98980.14
2022-09-26T22:57:46.079Z,98974.55
2022-09-26T23:00:17.315Z,98968.80
2022-09-26T23:02:47.595Z,98966.37
2022-09-26T23:05:18.078Z,98967.20
2022-09-26T23:07:48.361Z,98962.48
2022-09-26T23:10:22.242Z,98958.80
2022-09-26T23:12:52.550Z,98953.92
2022-09-26T23:15:23.182Z,98947.42
2022-09-26T23:17:53.461Z,98945.85
2022-09-26T23:20:23.809Z,98942.34
2022-09-26T23:22:54.186Z,98941.14
2022-09-26T23:25:24.717Z,98934.16
2022-09-26T23:27:55.031Z,98934.16
2022-09-26T23:30:25.348Z,98929.45
2022-09-26T23:32:55.569Z,98923.13
2022-09-26T23:35:25.893Z,98919.58
2022-09-26T23:37:58.069Z,98922.17
2022-09-26T23:40:29.519Z,98923.02
2022-09-26T23:42:59.896Z,98922.48
2022-09-26T23:45:31.106Z,98925.10
2022-09-26T23:48:01.613Z,98927.17
2022-09-26T23:50:31.874Z,98927.12
2022-09-26T23:53:06.337Z,98923.94
2022-09-26T23:55:37.031Z,98917.95
2022-09-26T23:58:07.745Z,98915.98
